Meyersdale, Pennsylvania
Current Conditions -  °F | °C
As of 6:20 AM on Sunday 23 Nov 2014 (Local Time) from KCBE Reporting Station
Clear Clear  
Wind Chill: 32°   Ceiling: Unl
Heat Index: 32°   Visibility: 10mi
Dew Point: 25°   Wind: 0mph
Humidity: 75%   Direction: NA
Pressure: 30.19"   Gusts: NA
Location:  39.81°N, 79.02°W
Report Text: KCBE 231120Z AUTO 00000KT 10SM CLR 00/M04 A3019 RMK AO1
Loading
Personal Weather Stations






























Interactive Weather Map New forecast layout! Learn more

10-Day Weather Forecast

Advertisements
Track Severe Weather on mobile